Time;durP1;ratioP1;P1;durP2;ratioP2;P2;SDS_P1;SDS_P2;PMS_P1;PMS_P2;Temp;Humidity;BMP_temperature;BMP_pressure;BME280_temperature;BME280_humidity;BME280_pressure;Samples;Min_cycle;Max_cycle;Signal;HPM_P1;HPM_P2
2021/01/12 00:03:08;;;;;;;17.10;13.77;;;2.00;88.10;;;;;;10460075;28;20291;-78
2021/01/12 00:08:10;;;;;;;16.27;13.60;;;2.10;86.30;;;;;;10458838;28;20275;-78
2021/01/12 00:13:11;;;;;;;15.43;13.50;;;2.10;86.60;;;;;;10456257;28;20216;-78
2021/01/12 00:18:14;;;;;;;17.80;13.77;;;2.10;85.50;;;;;;10435682;28;20239;-78
2021/01/12 00:23:15;;;;;;;17.07;15.00;;;2.00;85.10;;;;;;10461525;28;20193;-78
2021/01/12 00:28:17;;;;;;;16.03;14.00;;;1.80;84.80;;;;;;10443781;28;20244;-78
2021/01/12 00:33:19;;;;;;;19.23;15.03;;;1.60;85.70;;;;;;10477162;28;20204;-79
2021/01/12 00:38:21;;;;;;;15.97;13.63;;;1.60;87.40;;;;;;10474451;28;20310;-78
2021/01/12 00:43:24;;;;;;;17.10;14.00;;;1.60;86.80;;;;;;10459558;28;20197;-78
2021/01/12 00:48:27;;;;;;;18.53;14.87;;;1.60;86.30;;;;;;10467664;28;20299;-78
2021/01/12 00:53:29;;;;;;;20.97;16.07;;;1.50;86.20;;;;;;10468314;28;20211;-78
2021/01/12 00:58:30;;;;;;;17.83;15.40;;;1.50;87.10;;;;;;10500213;28;20252;-78
2021/01/12 01:03:33;;;;;;;18.13;15.40;;;1.50;86.90;;;;;;10489929;28;20213;-78
2021/01/12 01:08:35;;;;;;;17.47;13.60;;;1.60;87.80;;;;;;10467500;28;20213;-78
2021/01/12 01:13:36;;;;;;;18.63;14.90;;;1.60;86.90;;;;;;10464488;28;20186;-78
2021/01/12 01:18:39;;;;;;;15.33;12.70;;;1.70;88.60;;;;;;10459699;28;20398;-78
2021/01/12 01:23:41;;;;;;;16.80;13.87;;;1.80;87.00;;;;;;10462633;28;20330;-78
2021/01/12 01:28:43;;;;;;;15.10;13.17;;;1.90;85.80;;;;;;10463587;28;20311;-78
2021/01/12 01:33:46;;;;;;;18.20;14.30;;;1.80;86.70;;;;;;10511129;28;20221;-78
2021/01/12 01:38:48;;;;;;;17.00;13.70;;;1.70;86.70;;;;;;10516182;28;20212;-78
2021/01/12 01:43:50;;;;;;;13.87;12.30;;;1.70;88.80;;;;;;10513781;28;20208;-79
2021/01/12 01:48:53;;;;;;;14.00;12.27;;;1.70;87.70;;;;;;10500696;28;20295;-78
2021/01/12 01:53:54;;;;;;;14.67;12.40;;;1.80;88.10;;;;;;10500798;28;20633;-79
2021/01/12 01:58:56;;;;;;;13.90;12.40;;;1.90;88.00;;;;;;10448265;28;20275;-78
2021/01/12 02:04:07;;;;;;;16.00;12.67;;;1.90;88.00;;;;;;10453882;28;20382;-78
2021/01/12 02:09:22;;;;;;;13.10;11.70;;;1.80;88.50;;;;;;10458883;28;20224;-78
2021/01/12 02:14:27;;;;;;;14.30;11.90;;;1.60;89.30;;;;;;10461886;28;20234;-78
2021/01/12 02:19:30;;;;;;;11.80;10.60;;;1.70;89.40;;;;;;10465070;28;20642;-78
2021/01/12 02:24:35;;;;;;;11.87;10.10;;;1.70;89.50;;;;;;10458518;28;20296;-78
2021/01/12 02:29:36;;;;;;;12.07;10.33;;;1.70;89.50;;;;;;10457874;28;20296;-78
2021/01/12 02:34:39;;;;;;;12.37;11.07;;;1.70;89.90;;;;;;10484195;28;20199;-78
2021/01/12 02:39:42;;;;;;;11.57;10.20;;;1.70;90.00;;;;;;10502105;28;20262;-77
2021/01/12 02:44:45;;;;;;;11.50;8.97;;;1.70;90.30;;;;;;10501357;28;20212;-78
2021/01/12 02:49:46;;;;;;;11.80;9.07;;;1.70;90.30;;;;;;10500964;28;20219;-78
2021/01/12 02:54:49;;;;;;;9.90;8.90;;;1.70;90.20;;;;;;10500777;28;20373;-78
2021/01/12 02:59:50;;;;;;;9.97;8.97;;;1.60;90.40;;;;;;10498068;28;20224;-79
2021/01/12 03:04:52;;;;;;;9.97;8.87;;;1.70;90.30;;;;;;10486321;28;20220;-79
2021/01/12 03:09:54;;;;;;;8.90;8.00;;;1.70;90.30;;;;;;10498807;28;20283;-78
2021/01/12 03:14:56;;;;;;;9.17;8.27;;;1.80;90.50;;;;;;10497829;28;20191;-78
2021/01/12 03:19:57;;;;;;;10.83;8.40;;;1.80;90.40;;;;;;10482673;28;20790;-78
2021/01/12 03:25:00;;;;;;;9.37;8.07;;;1.90;90.30;;;;;;10497670;28;20259;-78
2021/01/12 03:30:02;;;;;;;8.37;7.33;;;2.00;90.30;;;;;;10496527;28;20236;-78
2021/01/12 03:35:04;;;;;;;9.43;7.37;;;2.00;90.20;;;;;;10499305;28;20227;-78
2021/01/12 03:40:08;;;;;;;8.60;7.57;;;2.00;90.30;;;;;;10468432;28;20185;-78
2021/01/12 03:45:10;;;;;;;9.97;7.13;;;2.00;90.50;;;;;;10441801;28;20225;-79
2021/01/12 03:50:11;;;;;;;7.43;6.70;;;2.00;90.50;;;;;;10443908;28;20220;-79
2021/01/12 03:55:14;;;;;;;7.73;6.83;;;2.10;90.90;;;;;;10460932;28;20188;-79
2021/01/12 04:00:17;;;;;;;8.27;7.47;;;2.20;91.10;;;;;;10458008;28;20201;-79
2021/01/12 04:05:19;;;;;;;7.80;6.63;;;2.30;91.50;;;;;;10461624;28;20217;-79
2021/01/12 04:10:21;;;;;;;7.43;6.63;;;2.40;91.10;;;;;;10462721;28;20200;-79
2021/01/12 04:15:23;;;;;;;7.50;6.70;;;2.50;91.50;;;;;;10460340;28;20220;-79
2021/01/12 04:20:25;;;;;;;8.00;7.20;;;2.60;91.30;;;;;;10467940;28;20256;-78
2021/01/12 04:25:27;;;;;;;7.93;7.13;;;2.70;91.20;;;;;;10462067;28;20498;-78
2021/01/12 04:30:29;;;;;;;8.57;6.90;;;2.70;91.40;;;;;;10424369;28;20212;-78
2021/01/12 04:35:31;;;;;;;8.83;7.87;;;2.70;91.80;;;;;;10423605;28;20202;-79
2021/01/12 04:40:34;;;;;;;8.90;7.20;;;2.70;91.90;;;;;;10423388;28;20245;-79
2021/01/12 04:45:35;;;;;;;7.87;7.10;;;2.80;91.80;;;;;;10422685;28;20213;-79
2021/01/12 04:50:38;;;;;;;7.50;6.80;;;2.80;91.80;;;;;;10420174;28;20275;-79
2021/01/12 05:00:46;;;;;;;7.50;6.70;;;2.90;91.70;;;;;;10393730;28;20210;-83
2021/01/12 05:05:53;;;;;;;7.87;7.07;;;3.00;91.70;;;;;;10374797;28;20313;-83
2021/01/12 05:10:57;;;;;;;8.83;7.27;;;3.00;91.50;;;;;;10387516;28;20649;-83
2021/01/12 05:16:07;;;;;;;8.17;7.37;;;3.00;91.60;;;;;;10391219;28;20216;-83
2021/01/12 05:21:12;;;;;;;8.57;7.27;;;2.90;91.80;;;;;;10406672;28;20198;-84
2021/01/12 05:26:17;;;;;;;9.30;8.10;;;2.90;91.90;;;;;;10390768;28;20303;-83
2021/01/12 05:31:23;;;;;;;8.87;7.93;;;2.90;92.00;;;;;;10408022;28;20208;-83
2021/01/12 05:36:24;;;;;;;9.30;8.07;;;2.80;92.00;;;;;;10439665;28;20267;-82
2021/01/12 05:41:27;;;;;;;9.00;8.10;;;2.80;92.30;;;;;;10425135;28;20197;-83
2021/01/12 05:46:31;;;;;;;9.20;7.80;;;2.80;92.50;;;;;;10421810;28;21083;-83
2021/01/12 05:51:43;;;;;;;8.13;7.33;;;2.90;92.80;;;;;;10424833;28;20229;-83
2021/01/12 05:56:49;;;;;;;8.03;7.13;;;3.00;92.90;;;;;;10399475;28;20237;-84
2021/01/12 06:01:53;;;;;;;10.03;8.13;;;3.10;92.90;;;;;;10399132;28;20191;-84
2021/01/12 06:06:58;;;;;;;8.00;7.10;;;3.10;92.80;;;;;;10398715;28;20265;-83
2021/01/12 06:12:00;;;;;;;7.30;6.60;;;3.10;93.20;;;;;;10399503;28;20272;-83
2021/01/12 06:17:09;;;;;;;7.00;6.30;;;3.10;93.40;;;;;;10397211;28;20229;-83
2021/01/12 06:22:16;;;;;;;7.10;6.40;;;3.00;93.70;;;;;;10391262;28;20203;-84
2021/01/12 06:27:20;;;;;;;7.00;6.30;;;3.20;93.60;;;;;;10417523;28;20316;-83
2021/01/12 06:32:24;;;;;;;7.37;6.53;;;3.10;93.80;;;;;;10413720;28;20203;-84
2021/01/12 06:37:27;;;;;;;6.73;6.13;;;3.10;93.60;;;;;;10378792;28;20710;-82
2021/01/12 06:42:31;;;;;;;7.60;6.87;;;3.20;93.80;;;;;;10379828;28;20194;-84
2021/01/12 06:47:34;;;;;;;7.47;6.70;;;3.20;93.60;;;;;;10386207;28;20215;-84
2021/01/12 06:52:40;;;;;;;8.73;7.33;;;3.30;93.50;;;;;;10392004;28;20225;-82
2021/01/12 06:57:45;;;;;;;7.70;6.00;;;3.20;93.20;;;;;;10359592;28;20249;-83
2021/01/12 07:02:56;;;;;;;8.07;6.77;;;3.20;93.60;;;;;;10377920;28;20332;-83
2021/01/12 07:08:06;;;;;;;7.40;6.53;;;3.10;93.80;;;;;;10364233;28;20238;-82
2021/01/12 07:13:08;;;;;;;7.93;7.13;;;3.10;94.00;;;;;;10360233;28;20341;-82
2021/01/12 07:18:12;;;;;;;7.00;6.30;;;3.10;94.00;;;;;;10377513;28;20290;-82
2021/01/12 07:23:14;;;;;;;7.47;6.43;;;3.20;93.90;;;;;;10321849;28;20206;-83
2021/01/12 07:28:19;;;;;;;7.03;6.33;;;3.20;94.20;;;;;;10376203;28;20737;-83
2021/01/12 07:33:24;;;;;;;6.33;5.70;;;3.30;94.30;;;;;;10359229;28;20659;-83
2021/01/12 07:38:26;;;;;;;8.40;7.43;;;3.40;94.40;;;;;;10368381;28;20687;-83
2021/01/12 07:43:28;;;;;;;6.87;6.27;;;3.40;94.90;;;;;;10354046;28;20299;-83
2021/01/12 07:48:38;;;;;;;9.90;7.07;;;3.40;95.10;;;;;;10375906;28;20226;-83
2021/01/12 07:53:41;;;;;;;7.90;6.37;;;3.40;95.50;;;;;;10387205;28;20210;-82
2021/01/12 07:58:44;;;;;;;6.60;5.93;;;3.40;95.40;;;;;;10359396;28;20238;-82
2021/01/12 08:03:47;;;;;;;6.27;5.43;;;3.40;95.60;;;;;;10374819;28;20202;-82
2021/01/12 08:08:56;;;;;;;6.50;5.80;;;3.30;95.60;;;;;;10357131;28;20250;-83
2021/01/12 08:14:04;;;;;;;5.70;5.20;;;3.40;95.80;;;;;;10372658;28;20194;-83
2021/01/12 08:19:07;;;;;;;6.80;6.20;;;3.40;96.00;;;;;;10376639;28;20214;-83
2021/01/12 08:24:10;;;;;;;6.87;6.17;;;3.50;95.80;;;;;;10360826;28;20842;-83
2021/01/12 08:29:13;;;;;;;6.30;5.70;;;3.50;96.20;;;;;;10378818;28;20694;-84
2021/01/12 08:34:21;;;;;;;6.10;5.43;;;3.50;96.20;;;;;;10359847;28;20253;-83
2021/01/12 08:39:24;;;;;;;5.57;5.07;;;3.50;96.50;;;;;;10376037;28;20679;-83
2021/01/12 08:44:34;;;;;;;5.13;4.73;;;3.50;96.90;;;;;;10374363;28;20207;-83
2021/01/12 08:49:37;;;;;;;4.83;4.40;;;3.60;96.90;;;;;;10376202;28;20219;-83
2021/01/12 08:54:39;;;;;;;5.10;4.70;;;3.70;97.10;;;;;;10375550;28;20285;-83
2021/01/12 08:59:40;;;;;;;4.77;4.37;;;3.70;97.30;;;;;;10392234;28;20276;-83
2021/01/12 09:04:43;;;;;;;4.30;3.90;;;3.70;97.50;;;;;;10359538;28;20226;-84
2021/01/12 09:09:51;;;;;;;3.60;3.30;;;3.80;97.70;;;;;;10368041;28;20215;-84
2021/01/12 09:14:53;;;;;;;3.90;3.60;;;3.80;97.90;;;;;;10385176;28;20202;-83
2021/01/12 09:19:56;;;;;;;3.87;3.57;;;3.90;98.10;;;;;;10376378;28;20241;-84
2021/01/12 09:24:58;;;;;;;4.17;3.77;;;3.90;98.10;;;;;;10385256;28;20563;-84
2021/01/12 09:30:00;;;;;;;3.90;3.57;;;4.00;98.30;;;;;;10386365;28;20237;-84
2021/01/12 09:35:06;;;;;;;5.03;4.63;;;3.90;98.70;;;;;;10399022;28;20190;-84
2021/01/12 09:40:09;;;;;;;3.03;2.83;;;3.90;99.20;;;;;;10401015;28;20585;-83
2021/01/12 09:57:47;;;;;;;2.20;2.10;;;3.90;99.90;;;;;;10398098;28;20222;-84
2021/01/12 10:02:48;;;;;;;2.87;2.67;;;3.90;99.90;;;;;;10392133;28;20253;-85
2021/01/12 10:07:50;;;;;;;2.20;2.10;;;3.70;99.90;;;;;;10379354;28;20694;-84
2021/01/12 10:12:53;;;;;;;2.70;2.60;;;3.60;99.90;;;;;;10370197;28;20209;-84
2021/01/12 10:17:55;;;;;;;2.97;2.87;;;3.60;99.90;;;;;;10394065;28;20217;-86
2021/01/12 10:22:56;;;;;;;2.60;2.50;;;3.40;99.90;;;;;;10366073;28;20199;-85
2021/01/12 10:28:00;;;;;;;3.77;3.57;;;3.30;99.90;;;;;;10355143;28;20269;-84
2021/01/12 10:33:03;;;;;;;3.70;3.40;;;3.20;99.90;;;;;;10390739;28;20202;-85
2021/01/12 10:38:05;;;;;;;4.33;4.13;;;3.20;99.90;;;;;;10385547;28;20329;-84
2021/01/12 10:43:08;;;;;;;3.47;3.27;;;3.20;99.90;;;;;;10371285;28;20427;-84
2021/01/12 10:48:10;;;;;;;2.50;2.40;;;3.20;99.90;;;;;;10371904;28;20768;-84
2021/01/12 10:53:12;;;;;;;3.60;3.40;;;3.20;99.90;;;;;;10370471;28;20206;-84
2021/01/12 10:58:15;;;;;;;2.13;2.03;;;3.10;99.90;;;;;;10368223;28;20318;-87
2021/01/12 11:03:17;;;;;;;3.40;3.30;;;3.10;99.90;;;;;;10383202;28;20210;-85
2021/01/12 11:08:19;;;;;;;3.10;2.90;;;3.10;99.90;;;;;;10370417;28;20241;-85
2021/01/12 11:13:22;;;;;;;2.77;2.67;;;3.10;99.90;;;;;;10381192;28;20511;-82
2021/01/12 11:18:25;;;;;;;3.17;3.07;;;3.20;99.90;;;;;;10380061;28;20223;-84
2021/01/12 11:23:26;;;;;;;5.80;5.50;;;3.20;99.90;;;;;;10365473;28;20198;-82
2021/01/12 11:28:29;;;;;;;3.90;3.80;;;3.30;99.90;;;;;;10355411;28;20728;-85
2021/01/12 11:33:31;;;;;;;3.80;3.70;;;3.20;99.90;;;;;;10370263;28;20249;-85
2021/01/12 11:38:33;;;;;;;5.53;5.33;;;3.20;99.90;;;;;;10395396;28;20625;-85
2021/01/12 11:43:35;;;;;;;3.67;3.40;;;3.10;99.90;;;;;;10348142;28;20628;-88
2021/01/12 11:48:38;;;;;;;4.00;3.90;;;3.20;99.90;;;;;;10347214;28;20315;-88
2021/01/12 11:53:40;;;;;;;6.00;5.80;;;3.20;99.90;;;;;;10366165;28;20655;-85
2021/01/12 11:58:42;;;;;;;4.20;4.10;;;3.20;99.90;;;;;;10382151;28;20229;-85
2021/01/12 12:03:44;;;;;;;4.60;4.50;;;3.20;99.90;;;;;;10378357;28;20542;-87
2021/01/12 12:08:47;;;;;;;3.83;3.63;;;3.20;99.90;;;;;;10390293;28;20222;-85
2021/01/12 12:13:50;;;;;;;5.50;5.30;;;3.30;99.90;;;;;;10400612;28;20776;-87
2021/01/12 12:18:52;;;;;;;5.60;5.40;;;3.30;99.90;;;;;;10362072;28;20211;-85
2021/01/12 12:23:54;;;;;;;5.57;5.33;;;3.40;99.90;;;;;;10376042;28;20256;-85
2021/01/12 12:28:57;;;;;;;5.60;5.50;;;3.40;99.90;;;;;;10390281;28;20219;-86
2021/01/12 12:33:59;;;;;;;5.10;5.00;;;3.50;99.90;;;;;;10344262;28;20202;-85
2021/01/12 12:39:01;;;;;;;3.63;3.53;;;3.50;99.90;;;;;;10377069;28;20215;-84
2021/01/12 12:44:04;;;;;;;5.60;5.40;;;3.50;99.90;;;;;;10385373;28;20230;-85
2021/01/12 12:49:06;;;;;;;6.80;6.60;;;3.40;99.90;;;;;;10353652;28;20226;-86
2021/01/12 12:54:08;;;;;;;6.10;5.90;;;3.30;99.90;;;;;;10377651;28;20202;-82
2021/01/12 12:59:14;;;;;;;5.50;5.20;;;3.30;99.90;;;;;;10379480;28;20230;-82
2021/01/12 13:04:17;;;;;;;7.40;7.20;;;3.30;99.90;;;;;;10374151;28;20195;-82
2021/01/12 13:09:20;;;;;;;4.47;4.37;;;3.30;99.90;;;;;;10376722;28;20222;-83
2021/01/12 13:14:24;;;;;;;7.00;6.80;;;3.30;99.90;;;;;;10373884;28;20195;-82
2021/01/12 13:19:30;;;;;;;5.90;5.60;;;3.20;99.90;;;;;;10375517;28;20225;-83
2021/01/12 13:24:34;;;;;;;6.00;5.70;;;3.30;99.90;;;;;;10393584;28;20305;-82
2021/01/12 13:29:37;;;;;;;4.80;4.60;;;3.30;99.90;;;;;;10392740;28;20218;-81
2021/01/12 13:34:39;;;;;;;5.10;5.00;;;3.30;99.90;;;;;;10362474;28;20205;-81
2021/01/12 13:39:40;;;;;;;5.97;5.57;;;3.40;99.90;;;;;;10359898;28;20224;-81
2021/01/12 13:44:43;;;;;;;8.27;7.87;;;3.40;99.90;;;;;;10363158;28;20218;-82
2021/01/12 13:49:45;;;;;;;6.60;6.40;;;3.40;99.90;;;;;;10375165;28;20257;-82
2021/01/12 13:54:48;;;;;;;6.63;6.33;;;3.30;99.90;;;;;;10375964;28;20332;-82
2021/01/12 13:59:53;;;;;;;5.80;5.60;;;3.30;99.90;;;;;;10390615;28;20714;-84
2021/01/12 14:04:56;;;;;;;5.07;4.90;;;3.40;99.90;;;;;;10374637;28;20245;-83
2021/01/12 14:09:58;;;;;;;6.43;6.10;;;3.40;99.90;;;;;;10377090;28;20222;-84
2021/01/12 14:15:01;;;;;;;6.27;5.80;;;3.50;99.90;;;;;;10393386;28;20206;-83
2021/01/12 14:20:04;;;;;;;5.50;5.30;;;3.60;99.90;;;;;;10379023;28;20206;-85
2021/01/12 14:25:06;;;;;;;7.97;7.67;;;3.50;99.90;;;;;;10395739;28;20620;-84
2021/01/12 14:30:10;;;;;;;6.40;6.20;;;3.50;99.90;;;;;;10375076;28;20219;-82
2021/01/12 14:35:13;;;;;;;6.43;6.13;;;3.60;99.90;;;;;;10385781;28;20217;-82
2021/01/12 14:40:16;;;;;;;5.80;5.60;;;3.60;99.90;;;;;;10411405;28;20636;-83
2021/01/12 14:45:20;;;;;;;4.27;4.17;;;3.60;99.90;;;;;;10396206;28;20266;-83
2021/01/12 14:50:22;;;;;;;5.50;5.27;;;3.60;99.90;;;;;;10413897;28;20214;-83
2021/01/12 14:55:24;;;;;;;3.93;3.83;;;3.50;99.90;;;;;;10404462;28;20202;-83
2021/01/12 15:00:27;;;;;;;5.50;5.30;;;3.40;99.90;;;;;;10409003;28;20223;-84
2021/01/12 15:05:29;;;;;;;4.50;4.40;;;3.40;99.90;;;;;;10384582;28;20631;-83
2021/01/12 15:10:31;;;;;;;6.70;6.20;;;3.40;99.90;;;;;;10401367;28;20282;-84
2021/01/12 15:15:33;;;;;;;5.40;5.20;;;3.50;99.90;;;;;;10387350;28;20264;-83
2021/01/12 15:20:37;;;;;;;4.83;4.73;;;3.60;99.90;;;;;;10408549;28;20230;-84
2021/01/12 15:25:39;;;;;;;5.27;5.10;;;3.60;99.90;;;;;;10396191;28;20214;-84
2021/01/12 15:30:48;;;;;;;5.20;5.00;;;3.50;99.90;;;;;;10405459;28;20201;-85
2021/01/12 15:35:53;;;;;;;5.80;5.60;;;3.60;99.90;;;;;;10361142;28;20194;-85
2021/01/12 15:40:54;;;;;;;5.87;5.57;;;3.50;99.90;;;;;;10372403;28;20198;-85
2021/01/12 15:45:58;;;;;;;5.40;5.20;;;3.50;99.90;;;;;;10369962;28;20233;-83
2021/01/12 15:51:00;;;;;;;4.13;4.03;;;3.60;99.90;;;;;;10372584;28;20266;-83
2021/01/12 15:56:02;;;;;;;5.03;4.90;;;3.60;99.90;;;;;;10381488;28;20310;-83
2021/01/12 16:01:06;;;;;;;4.37;4.27;;;3.60;99.90;;;;;;10387774;28;20238;-85
2021/01/12 16:06:08;;;;;;;4.70;4.60;;;3.70;99.90;;;;;;10371834;28;20726;-81
2021/01/12 16:11:12;;;;;;;5.20;5.00;;;3.70;99.90;;;;;;10384369;28;20249;-85
2021/01/12 16:16:16;;;;;;;4.70;4.60;;;3.80;99.90;;;;;;10374347;28;20278;-84
2021/01/12 16:21:19;;;;;;;4.80;4.60;;;3.80;99.90;;;;;;10362324;28;20226;-85
2021/01/12 16:26:21;;;;;;;4.97;4.77;;;3.90;99.90;;;;;;10352164;28;20590;-83
2021/01/12 16:31:29;;;;;;;4.80;4.60;;;4.00;99.90;;;;;;10353356;28;20198;-85
2021/01/12 16:36:31;;;;;;;4.77;4.57;;;4.10;99.90;;;;;;10360078;28;20219;-84
2021/01/12 16:41:44;;;;;;;4.30;4.20;;;4.10;99.90;;;;;;10359170;28;20234;-83
2021/01/12 16:46:56;;;;;;;5.03;4.83;;;4.20;99.90;;;;;;10350525;28;20253;-82
2021/01/12 16:52:09;;;;;;;4.80;4.50;;;4.20;99.90;;;;;;10373887;28;20202;-82
2021/01/12 16:57:35;;;;;;;4.43;4.33;;;4.20;99.90;;;;;;10417145;22;20229;-79
2021/01/12 17:02:50;;;;;;;4.40;4.30;;;4.20;99.90;;;;;;10438325;28;20205;-79
2021/01/12 17:08:01;;;;;;;4.30;4.10;;;4.30;99.90;;;;;;10444057;28;20213;-79
2021/01/12 17:13:12;;;;;;;4.57;4.40;;;4.40;99.90;;;;;;10441339;28;20210;-79
2021/01/12 17:18:20;;;;;;;4.00;3.83;;;4.30;99.90;;;;;;10424425;28;20221;-79
2021/01/12 17:23:28;;;;;;;5.33;5.13;;;4.20;99.90;;;;;;10440058;28;20197;-79
2021/01/12 17:28:35;;;;;;;2.77;2.67;;;4.20;99.90;;;;;;10444313;28;20259;-77
2021/01/12 17:33:40;;;;;;;4.80;4.60;;;4.20;99.90;;;;;;10429035;28;20466;-76
2021/01/12 17:38:45;;;;;;;3.60;3.40;;;4.30;99.90;;;;;;10448641;28;20236;-76
2021/01/12 17:43:53;;;;;;;4.50;4.30;;;4.40;99.90;;;;;;10449651;28;20676;-77
2021/01/12 17:49:02;;;;;;;5.60;5.40;;;4.40;99.90;;;;;;10448048;28;20225;-77
2021/01/12 17:54:12;;;;;;;6.07;5.77;;;4.40;99.90;;;;;;10431342;28;20304;-76
2021/01/12 17:59:26;;;;;;;7.10;6.70;;;4.30;99.90;;;;;;10466404;28;20225;-77
2021/01/12 18:04:54;;;;;;;6.20;5.90;;;4.30;99.90;;;;;;10448158;28;20707;-77
2021/01/12 18:10:15;;;;;;;6.07;5.77;;;4.40;99.90;;;;;;10432118;28;20225;-78
2021/01/12 18:15:21;;;;;;;5.87;5.57;;;4.50;99.90;;;;;;10451065;28;20207;-78
2021/01/12 18:20:29;;;;;;;5.70;5.50;;;4.50;99.90;;;;;;10450344;28;20696;-78
2021/01/12 18:25:33;;;;;;;6.10;5.60;;;4.50;99.90;;;;;;10464380;28;20228;-78
2021/01/12 18:30:35;;;;;;;6.50;6.20;;;4.50;99.90;;;;;;10430695;28;20228;-78
2021/01/12 18:35:43;;;;;;;6.53;6.10;;;4.50;99.90;;;;;;10448786;28;20201;-78
2021/01/12 18:40:54;;;;;;;6.17;5.77;;;4.60;99.90;;;;;;10447525;28;20200;-78
2021/01/12 18:46:19;;;;;;;4.87;4.50;;;4.60;99.90;;;;;;10436794;28;20244;-78
2021/01/12 18:51:24;;;;;;;6.57;6.20;;;4.70;99.90;;;;;;10447919;28;20248;-79
2021/01/12 18:56:26;;;;;;;4.20;4.00;;;4.70;99.90;;;;;;10447623;28;20228;-78
2021/01/12 19:01:30;;;;;;;7.30;6.80;;;4.70;99.90;;;;;;10432984;28;20231;-78
2021/01/12 19:06:35;;;;;;;6.30;6.00;;;4.70;99.90;;;;;;10456853;28;20861;-78
2021/01/12 19:11:37;;;;;;;7.97;7.57;;;4.70;99.90;;;;;;10455292;28;20193;-79
2021/01/12 19:16:50;;;;;;;7.20;6.80;;;4.70;99.90;;;;;;10425684;28;20217;-78
2021/01/12 19:21:53;;;;;;;7.10;6.70;;;4.70;99.90;;;;;;10462445;28;20205;-77
2021/01/12 19:26:57;;;;;;;7.37;6.97;;;4.70;99.90;;;;;;10424852;28;20842;-78
2021/01/12 19:32:00;;;;;;;6.47;6.10;;;4.80;99.90;;;;;;10443054;28;20200;-77
2021/01/12 19:37:06;;;;;;;5.97;5.73;;;4.80;99.90;;;;;;10401402;28;20214;-78
2021/01/12 19:42:15;;;;;;;5.30;5.03;;;4.90;99.90;;;;;;10436882;28;20247;-78
2021/01/12 19:47:17;;;;;;;5.07;4.97;;;5.00;99.90;;;;;;10424515;28;20312;-80
2021/01/12 19:52:25;;;;;;;4.20;4.00;;;5.00;99.90;;;;;;10442433;28;20565;-78
2021/01/12 19:57:27;;;;;;;5.27;5.07;;;5.00;99.90;;;;;;10434783;28;20233;-78
2021/01/12 20:02:30;;;;;;;3.30;3.20;;;5.00;99.90;;;;;;10437040;28;20210;-78
2021/01/12 20:07:33;;;;;;;4.70;4.60;;;5.00;99.90;;;;;;10424167;28;21141;-79
2021/01/12 20:12:49;;;;;;;6.07;5.77;;;5.00;99.90;;;;;;10446739;28;20666;-79
2021/01/12 20:18:03;;;;;;;5.67;5.47;;;5.00;99.90;;;;;;10445513;28;20251;-79
2021/01/12 20:23:08;;;;;;;7.47;6.97;;;4.90;99.90;;;;;;10442608;28;20197;-79
2021/01/12 20:28:15;;;;;;;7.47;6.97;;;4.80;99.90;;;;;;10442159;28;20323;-79
2021/01/12 20:33:18;;;;;;;9.83;9.23;;;4.60;99.90;;;;;;10441333;28;20201;-77
2021/01/12 20:38:22;;;;;;;6.97;6.53;;;4.50;99.90;;;;;;10437998;28;20340;-79
2021/01/12 20:43:26;;;;;;;9.00;8.40;;;4.40;99.90;;;;;;10442409;28;20197;-79
2021/01/12 20:48:28;;;;;;;9.10;8.50;;;4.40;99.90;;;;;;10452632;28;20252;-77
2021/01/12 20:53:34;;;;;;;9.10;8.50;;;4.40;99.90;;;;;;10425864;28;20204;-78
2021/01/12 20:58:36;;;;;;;10.43;9.63;;;4.30;99.90;;;;;;10445235;28;20647;-78
2021/01/12 21:03:38;;;;;;;10.53;9.73;;;4.30;99.90;;;;;;10448984;28;20229;-78
2021/01/12 21:08:40;;;;;;;11.90;11.00;;;4.20;99.90;;;;;;10453575;28;20217;-79
2021/01/12 21:13:42;;;;;;;11.13;10.30;;;4.10;99.90;;;;;;10454239;28;21080;-78
2021/01/12 21:18:43;;;;;;;11.40;10.60;;;4.10;99.90;;;;;;10437122;28;20225;-79
2021/01/12 21:23:46;;;;;;;11.60;10.70;;;4.10;99.90;;;;;;10454755;28;20395;-78
2021/01/12 21:28:48;;;;;;;11.47;10.57;;;4.20;99.90;;;;;;10453025;28;20232;-79
2021/01/12 21:33:50;;;;;;;11.50;10.70;;;4.20;99.90;;;;;;10453309;28;20605;-79
2021/01/12 21:38:52;;;;;;;11.93;11.03;;;4.20;99.90;;;;;;10454948;28;20585;-80
2021/01/12 21:43:55;;;;;;;12.80;11.83;;;4.20;99.90;;;;;;10454466;28;20209;-78
2021/01/12 21:48:56;;;;;;;12.30;11.40;;;4.20;99.90;;;;;;10444764;28;20226;-78
2021/01/12 21:54:01;;;;;;;11.90;10.70;;;4.20;99.90;;;;;;10446828;28;20216;-78
2021/01/12 21:59:02;;;;;;;11.77;10.60;;;4.20;99.90;;;;;;10436477;28;20250;-77
2021/01/12 22:04:04;;;;;;;11.40;10.40;;;4.20;99.90;;;;;;10447161;28;20589;-78
2021/01/12 22:09:07;;;;;;;11.97;10.97;;;4.20;99.90;;;;;;10447238;28;20317;-79
2021/01/12 22:14:09;;;;;;;9.37;8.67;;;4.10;99.90;;;;;;10446662;28;20194;-78
2021/01/12 22:19:11;;;;;;;10.77;9.87;;;4.10;99.90;;;;;;10447171;28;20331;-77
2021/01/12 22:24:14;;;;;;;10.30;9.43;;;4.00;99.90;;;;;;10445547;28;20292;-77
2021/01/12 22:29:16;;;;;;;12.07;11.00;;;4.00;99.90;;;;;;10444881;28;20255;-78
2021/01/12 22:34:17;;;;;;;11.63;10.73;;;3.90;99.90;;;;;;10445461;28;20347;-78
2021/01/12 22:39:20;;;;;;;11.33;10.53;;;3.80;99.90;;;;;;10447436;28;20244;-78
2021/01/12 22:44:22;;;;;;;12.93;11.67;;;3.80;99.90;;;;;;10444758;28;20205;-78
2021/01/12 22:49:23;;;;;;;12.37;11.27;;;3.80;99.90;;;;;;10445913;28;20241;-78
2021/01/12 22:54:26;;;;;;;13.60;12.40;;;3.70;99.90;;;;;;10443887;28;20284;-78
2021/01/12 22:59:28;;;;;;;13.47;12.23;;;3.70;99.90;;;;;;10501339;22;20247;-86
2021/01/12 23:04:29;;;;;;;12.70;11.70;;;3.60;99.90;;;;;;10502982;28;20296;-85
2021/01/12 23:09:32;;;;;;;12.60;11.60;;;3.40;99.90;;;;;;10486427;28;20244;-86
2021/01/12 23:14:34;;;;;;;13.40;12.13;;;3.30;99.90;;;;;;10475609;28;20246;-86
2021/01/12 23:19:36;;;;;;;12.93;11.80;;;3.10;99.90;;;;;;10479511;28;20508;-85
2021/01/12 23:24:45;;;;;;;12.90;11.90;;;3.00;99.90;;;;;;10475794;28;20628;-86
2021/01/12 23:36:12;;;;;;;12.10;11.20;;;2.90;99.90;;;;;;10504196;28;20185;-86
2021/01/12 23:41:15;;;;;;;12.90;11.80;;;2.90;99.90;;;;;;10483796;28;20207;-86
2021/01/12 23:46:17;;;;;;;11.30;10.47;;;3.00;99.90;;;;;;10482690;28;20220;-85
2021/01/12 23:51:18;;;;;;;12.33;11.23;;;2.90;99.90;;;;;;10497827;28;20232;-85
2021/01/12 23:56:21;;;;;;;11.73;10.83;;;3.00;99.90;;;;;;10486732;28;20287;-85
